Time;durP1;ratioP1;P1;durP2;ratioP2;P2;SDS_P1;SDS_P2;PMS_P1;PMS_P2;Temp;Humidity;BMP_temperature;BMP_pressure;BME280_temperature;BME280_humidity;BME280_pressure;Samples;Min_cycle;Max_cycle;Signal;HPM_P1;HPM_P2
2023/12/01 00:01:26;;;;;;;16.77;7.93;;;;;;;3.57;100.00;94560.38;5079964;28;20206;-71
2023/12/01 00:03:53;;;;;;;18.00;7.60;;;;;;;3.72;100.00;94559.44;5081457;28;20213;-72
2023/12/01 00:06:20;;;;;;;14.93;7.20;;;;;;;3.59;100.00;94571.44;5083002;28;20207;-71
2023/12/01 00:08:46;;;;;;;16.87;8.90;;;;;;;3.55;100.00;94570.16;5083248;28;20222;-70
2023/12/01 00:11:13;;;;;;;16.37;7.07;;;;;;;3.60;100.00;94566.03;5082143;28;20210;-72
2023/12/01 00:13:39;;;;;;;14.40;6.73;;;;;;;3.58;100.00;94570.63;5083406;28;20582;-71
2023/12/01 00:16:07;;;;;;;15.50;7.23;;;;;;;3.66;100.00;94563.53;5084836;28;21152;-71
2023/12/01 00:18:33;;;;;;;13.93;6.30;;;;;;;3.61;100.00;94561.66;5087693;28;20426;-72
2023/12/01 00:21:01;;;;;;;14.93;7.50;;;;;;;3.72;100.00;94568.06;5087139;28;20584;-72
2023/12/01 00:23:29;;;;;;;16.33;7.37;;;;;;;3.62;100.00;94562.28;5086207;28;20537;-70
2023/12/01 00:25:55;;;;;;;18.37;7.77;;;;;;;3.63;100.00;94566.50;5088652;28;20273;-72
2023/12/01 00:28:22;;;;;;;16.97;7.17;;;;;;;3.59;100.00;94555.81;5089430;28;20641;-71
2023/12/01 00:30:48;;;;;;;17.13;7.57;;;;;;;3.61;100.00;94552.03;5091134;28;20210;-71
2023/12/01 00:33:15;;;;;;;17.73;8.20;;;;;;;3.62;100.00;94550.25;5090806;28;20230;-71
2023/12/01 00:35:41;;;;;;;17.27;7.10;;;;;;;3.53;100.00;94566.94;5089162;28;20653;-71
2023/12/01 00:38:10;;;;;;;16.00;7.23;;;;;;;3.64;100.00;94565.53;5084591;28;21130;-71
2023/12/01 00:40:37;;;;;;;12.77;6.80;;;;;;;3.60;100.00;94557.44;5085159;28;20222;-71
2023/12/01 00:43:03;;;;;;;16.20;7.30;;;;;;;3.61;100.00;94553.84;5082454;28;20205;-72
2023/12/01 00:45:30;;;;;;;19.30;8.47;;;;;;;3.67;100.00;94559.97;5082329;28;20218;-71
2023/12/01 00:47:56;;;;;;;19.60;8.30;;;;;;;3.72;100.00;94557.63;5081999;28;20212;-71
2023/12/01 00:50:23;;;;;;;14.90;6.97;;;;;;;3.66;100.00;94558.31;5079849;28;20955;-71
2023/12/01 00:52:51;;;;;;;15.20;6.80;;;;;;;3.66;100.00;94563.53;5080971;28;20238;-71
2023/12/01 00:55:19;;;;;;;16.37;7.53;;;;;;;3.76;100.00;94566.72;5081243;28;20618;-71
2023/12/01 00:57:45;;;;;;;17.80;7.93;;;;;;;3.72;100.00;94562.03;5081969;28;20235;-72
2023/12/01 01:00:12;;;;;;;16.73;7.53;;;;;;;3.74;100.00;94566.09;5082731;28;20318;-71
2023/12/01 01:02:39;;;;;;;19.27;8.50;;;;;;;3.61;100.00;94566.88;5082387;28;20212;-71
2023/12/01 01:05:08;;;;;;;14.97;7.17;;;;;;;3.71;100.00;94571.63;5082733;28;20297;-71
2023/12/01 01:07:34;;;;;;;16.27;7.80;;;;;;;3.62;100.00;94570.09;5084365;28;20227;-71
2023/12/01 01:10:01;;;;;;;16.73;7.13;;;;;;;3.57;100.00;94568.22;5085238;28;20239;-71
2023/12/01 01:12:28;;;;;;;18.03;7.67;;;;;;;3.68;100.00;94558.97;5087119;28;21237;-71
2023/12/01 01:14:56;;;;;;;16.60;7.20;;;;;;;3.54;100.00;94563.31;5086341;28;20220;-71
2023/12/01 01:17:23;;;;;;;13.60;6.93;;;;;;;3.62;100.00;94561.47;5085907;28;20621;-71
2023/12/01 01:19:49;;;;;;;12.83;6.57;;;;;;;3.66;100.00;94557.53;5086339;28;20906;-72
2023/12/01 01:22:16;;;;;;;12.73;5.70;;;;;;;3.67;100.00;94559.97;5085433;28;20232;-71
2023/12/01 01:24:42;;;;;;;12.23;5.80;;;;;;;3.67;100.00;94559.16;5085378;28;20206;-71
2023/12/01 01:27:09;;;;;;;9.87;5.77;;;;;;;3.70;100.00;94558.78;5085078;28;20208;-72
2023/12/01 01:29:37;;;;;;;12.00;6.30;;;;;;;3.81;100.00;94564.38;5085223;28;20720;-71
2023/12/01 01:32:03;;;;;;;8.83;5.43;;;;;;;3.76;100.00;94564.09;5083982;28;20216;-71
2023/12/01 01:34:31;;;;;;;11.07;5.53;;;;;;;3.82;100.00;94576.44;5084531;28;20212;-71
2023/12/01 01:36:57;;;;;;;13.03;6.43;;;;;;;3.73;100.00;94580.09;5084236;28;20292;-71
2023/12/01 01:39:24;;;;;;;11.73;5.27;;;;;;;3.66;100.00;94571.34;5085748;28;20223;-72
2023/12/01 01:41:50;;;;;;;10.90;6.63;;;;;;;3.67;100.00;94569.56;5084909;28;20214;-71
2023/12/01 01:44:17;;;;;;;7.70;5.40;;;;;;;3.65;100.00;94563.72;5084148;28;20214;-72
2023/12/01 01:46:46;;;;;;;10.17;5.23;;;;;;;3.82;100.00;94562.63;5084018;28;20206;-72
2023/12/01 01:49:13;;;;;;;7.90;4.67;;;;;;;3.70;100.00;94557.03;5084733;28;20230;-71
2023/12/01 01:51:40;;;;;;;9.73;4.53;;;;;;;3.77;100.00;94550.09;5084683;28;20689;-72
2023/12/01 01:54:07;;;;;;;10.13;5.27;;;;;;;3.79;100.00;94547.31;5084534;28;20224;-71
2023/12/01 01:56:34;;;;;;;10.27;5.23;;;;;;;3.81;100.00;94564.38;5083327;28;20213;-72
2023/12/01 01:59:01;;;;;;;8.10;4.60;;;;;;;3.65;100.00;94555.91;5083159;28;20222;-72
2023/12/01 02:01:28;;;;;;;6.80;4.47;;;;;;;3.65;100.00;94561.94;5085062;28;20207;-71
2023/12/01 02:03:56;;;;;;;9.10;4.83;;;;;;;3.79;100.00;94561.16;5085209;28;20217;-71
2023/12/01 02:06:30;;;;;;;7.23;4.30;;;;;;;3.63;100.00;94563.91;5085953;28;20222;-71
2023/12/01 02:08:57;;;;;;;8.00;4.87;;;;;;;3.72;100.00;94568.06;5085444;28;21124;-71
2023/12/01 02:11:25;;;;;;;10.97;5.10;;;;;;;3.65;100.00;94567.16;5084753;28;21309;-71
2023/12/01 02:13:51;;;;;;;9.33;4.50;;;;;;;3.66;100.00;94567.94;5083989;28;20764;-71
2023/12/01 02:16:18;;;;;;;7.10;3.90;;;;;;;3.58;100.00;94575.00;5083821;28;20669;-71
2023/12/01 02:18:44;;;;;;;8.03;4.10;;;;;;;3.65;100.00;94574.97;5084503;28;20226;-71
2023/12/01 02:21:12;;;;;;;7.90;4.37;;;;;;;3.80;100.00;94575.78;5082871;28;20210;-71
2023/12/01 02:23:40;;;;;;;6.33;3.70;;;;;;;3.77;100.00;94586.56;5084035;28;20202;-71
2023/12/01 02:26:09;;;;;;;6.10;4.07;;;;;;;3.74;100.00;94586.94;5081694;28;20211;-71
2023/12/01 02:28:36;;;;;;;8.23;4.60;;;;;;;3.64;100.00;94580.34;5082193;28;20283;-71
2023/12/01 02:31:03;;;;;;;8.07;3.80;;;;;;;3.67;100.00;94586.00;5082553;28;20222;-71
2023/12/01 02:33:29;;;;;;;7.13;5.10;;;;;;;3.62;100.00;94568.50;5082772;28;20233;-71
2023/12/01 02:35:56;;;;;;;7.43;4.53;;;;;;;3.66;100.00;94573.16;5079469;28;20202;-71
2023/12/01 02:38:22;;;;;;;6.93;3.77;;;;;;;3.66;100.00;94576.56;5079288;28;20223;-72
2023/12/01 02:40:50;;;;;;;6.27;3.30;;;;;;;3.85;100.00;94583.88;5079274;28;20207;-71
2023/12/01 02:43:17;;;;;;;7.03;3.83;;;;;;;3.74;100.00;94586.94;5079082;28;20202;-71
2023/12/01 02:45:44;;;;;;;7.80;4.23;;;;;;;3.62;100.00;94586.72;5079210;28;20202;-71
2023/12/01 02:48:10;;;;;;;7.77;4.17;;;;;;;3.62;100.00;94588.31;5077699;28;20210;-71
2023/12/01 02:50:38;;;;;;;6.40;3.60;;;;;;;3.69;100.00;94597.06;5079171;28;20209;-71
2023/12/01 02:53:06;;;;;;;5.63;3.70;;;;;;;3.67;100.00;94596.41;5079045;28;20237;-71
2023/12/01 02:55:32;;;;;;;7.50;3.80;;;;;;;3.61;100.00;94583.28;5079191;28;20210;-71
2023/12/01 02:58:00;;;;;;;6.43;3.67;;;;;;;3.70;100.00;94590.88;5077958;28;20207;-71
2023/12/01 03:00:27;;;;;;;8.13;3.73;;;;;;;3.62;100.00;94582.31;5079880;28;20674;-71
2023/12/01 03:02:53;;;;;;;7.00;3.90;;;;;;;3.65;100.00;94582.78;5078644;28;20198;-70
2023/12/01 03:05:21;;;;;;;6.07;3.40;;;;;;;3.62;100.00;94577.91;5078535;28;21023;-71
2023/12/01 03:07:48;;;;;;;6.23;3.17;;;;;;;3.62;100.00;94583.09;5079170;28;20201;-71
2023/12/01 03:10:15;;;;;;;4.50;3.20;;;;;;;3.58;100.00;94575.84;5078216;28;20233;-71
2023/12/01 03:12:44;;;;;;;7.23;3.43;;;;;;;3.58;100.00;94572.41;5079855;28;20211;-71
2023/12/01 03:15:13;;;;;;;7.10;3.63;;;;;;;3.70;100.00;94574.41;5079429;28;20211;-71
2023/12/01 03:17:40;;;;;;;6.63;3.43;;;;;;;3.62;100.00;94570.09;5079798;28;20209;-71
2023/12/01 03:20:10;;;;;;;5.53;3.40;;;;;;;3.67;100.00;94562.56;5080161;28;20234;-71
2023/12/01 03:22:37;;;;;;;4.60;3.47;;;;;;;3.66;100.00;94558.31;5080757;28;20210;-71
2023/12/01 03:25:09;;;;;;;6.87;3.80;;;;;;;3.62;100.00;94566.69;5080157;28;20745;-71
2023/12/01 03:27:36;;;;;;;6.97;3.90;;;;;;;3.61;100.00;94559.84;5081150;28;20213;-71
2023/12/01 03:30:03;;;;;;;7.93;4.20;;;;;;;3.70;100.00;94570.03;5081149;28;20236;-71
2023/12/01 03:32:31;;;;;;;8.57;3.90;;;;;;;3.73;100.00;94564.47;5080464;28;20232;-71
2023/12/01 03:34:57;;;;;;;6.60;3.93;;;;;;;3.59;100.00;94561.84;5079974;28;20238;-71
2023/12/01 03:37:24;;;;;;;7.20;4.43;;;;;;;3.58;100.00;94570.63;5079564;28;20206;-71
2023/12/01 03:39:50;;;;;;;9.23;4.23;;;;;;;3.60;100.00;94571.25;5079653;28;20229;-71
2023/12/01 03:42:17;;;;;;;8.17;4.47;;;;;;;3.56;100.00;94567.38;5079260;28;20209;-71
2023/12/01 03:44:44;;;;;;;6.87;3.63;;;;;;;3.59;100.00;94581.84;5078672;28;20193;-71
2023/12/01 03:47:10;;;;;;;9.53;4.30;;;;;;;3.58;100.00;94569.78;5077887;28;20199;-71
2023/12/01 03:49:38;;;;;;;8.60;3.87;;;;;;;3.76;100.00;94569.31;5082281;28;20805;-70
2023/12/01 03:52:08;;;;;;;7.90;4.43;;;;;;;3.67;100.00;94577.38;5080542;28;20230;-72
2023/12/01 03:54:35;;;;;;;9.00;3.87;;;;;;;3.56;100.00;94580.41;5081869;28;20232;-71
2023/12/01 03:57:01;;;;;;;8.47;4.13;;;;;;;3.61;100.00;94582.50;5080488;28;20211;-71
2023/12/01 03:59:27;;;;;;;7.27;4.20;;;;;;;3.62;100.00;94576.31;5079984;28;20223;-70
2023/12/01 04:01:54;;;;;;;7.47;3.67;;;;;;;3.59;100.00;94576.63;5080961;28;20207;-71
2023/12/01 04:04:20;;;;;;;7.00;3.80;;;;;;;3.62;100.00;94583.09;5079427;28;20206;-71
2023/12/01 04:06:48;;;;;;;7.33;4.13;;;;;;;3.75;100.00;94578.09;5079661;28;20214;-71
2023/12/01 04:09:16;;;;;;;6.77;3.50;;;;;;;3.67;100.00;94570.38;5079542;28;20883;-70
2023/12/01 04:11:42;;;;;;;5.43;3.50;;;;;;;3.59;100.00;94576.63;5080493;28;20328;-70
2023/12/01 04:14:09;;;;;;;7.83;4.17;;;;;;;3.62;100.00;94568.50;5078840;28;20226;-71
2023/12/01 04:16:35;;;;;;;7.17;3.63;;;;;;;3.60;100.00;94565.25;5080586;28;20202;-71
2023/12/01 04:19:02;;;;;;;8.37;4.20;;;;;;;3.61;100.00;94585.09;5080252;28;20222;-71
2023/12/01 04:21:28;;;;;;;7.70;4.07;;;;;;;3.62;100.00;94580.50;5080523;28;20205;-71
2023/12/01 04:23:56;;;;;;;7.27;3.50;;;;;;;3.72;100.00;94582.88;5080179;28;20205;-71
2023/12/01 04:26:24;;;;;;;5.67;3.30;;;;;;;3.58;100.00;94588.03;5079690;28;20668;-70
2023/12/01 04:28:51;;;;;;;6.93;4.03;;;;;;;3.59;100.00;94594.84;5080659;28;21046;-71
2023/12/01 04:31:18;;;;;;;10.93;4.20;;;;;;;3.60;100.00;94586.88;5079321;28;20209;-70
2023/12/01 04:33:44;;;;;;;6.63;4.00;;;;;;;3.65;100.00;94587.97;5080446;28;20862;-71
2023/12/01 04:36:11;;;;;;;7.97;4.40;;;;;;;3.63;100.00;94584.72;5080116;28;20615;-70
2023/12/01 04:38:38;;;;;;;7.23;3.93;;;;;;;3.68;100.00;94592.03;5080067;28;20223;-71
2023/12/01 04:41:09;;;;;;;7.57;4.20;;;;;;;3.75;100.00;94588.53;5079804;28;20216;-71
2023/12/01 04:43:37;;;;;;;9.00;4.20;;;;;;;3.62;100.00;94597.13;5080447;28;20291;-72
2023/12/01 04:46:04;;;;;;;8.23;3.63;;;;;;;3.60;100.00;94593.88;5079007;28;20199;-71
2023/12/01 04:48:31;;;;;;;7.63;4.13;;;;;;;3.58;100.00;94595.84;5079001;28;20253;-70
2023/12/01 04:50:56;;;;;;;6.63;4.23;;;;;;;3.58;100.00;94606.25;5080340;28;20295;-71
2023/12/01 04:53:23;;;;;;;9.97;4.87;;;;;;;3.59;100.00;94613.09;5079469;28;20226;-71
2023/12/01 04:55:49;;;;;;;6.77;3.73;;;;;;;3.51;100.00;94613.94;5079535;28;20206;-70
2023/12/01 04:58:17;;;;;;;9.10;4.13;;;;;;;3.75;100.00;94603.34;5078555;28;20222;-71
2023/12/01 05:00:43;;;;;;;6.80;3.73;;;;;;;3.64;100.00;94607.19;5079141;28;20213;-72
2023/12/01 05:03:10;;;;;;;8.23;4.53;;;;;;;3.66;100.00;94605.19;5078562;28;20217;-70
2023/12/01 05:05:40;;;;;;;7.03;4.00;;;;;;;3.73;100.00;94611.34;5080111;28;20206;-72
2023/12/01 05:08:08;;;;;;;7.23;4.30;;;;;;;3.72;100.00;94614.13;5077819;28;20231;-70
2023/12/01 05:10:36;;;;;;;5.73;3.73;;;;;;;3.76;100.00;94607.59;5077171;28;20198;-71
2023/12/01 05:13:04;;;;;;;8.20;4.27;;;;;;;3.77;100.00;94610.00;5077708;28;20232;-70
2023/12/01 05:15:33;;;;;;;7.83;4.73;;;;;;;3.73;100.00;94595.72;5077098;28;20237;-72
2023/12/01 05:18:02;;;;;;;10.03;4.83;;;;;;;3.72;100.00;94598.50;5076599;28;20206;-70
2023/12/01 05:20:29;;;;;;;10.00;4.13;;;;;;;3.74;100.00;94601.72;5077188;28;20684;-71
2023/12/01 05:22:57;;;;;;;8.27;4.57;;;;;;;3.71;100.00;94608.09;5077132;28;20198;-70
2023/12/01 05:25:26;;;;;;;6.87;4.30;;;;;;;3.63;100.00;94608.16;5076205;28;20218;-71
2023/12/01 05:27:53;;;;;;;6.87;3.70;;;;;;;3.76;100.00;94603.19;5077168;28;20201;-71
2023/12/01 05:30:22;;;;;;;9.13;4.07;;;;;;;3.78;100.00;94616.84;5076502;28;20222;-71
2023/12/01 05:32:51;;;;;;;6.63;3.57;;;;;;;3.82;100.00;94625.94;5076396;28;20202;-72
2023/12/01 05:35:19;;;;;;;7.90;3.83;;;;;;;3.70;100.00;94622.13;5075657;28;20226;-71
2023/12/01 05:37:48;;;;;;;9.67;4.10;;;;;;;3.81;100.00;94626.91;5076767;28;20214;-70
2023/12/01 05:40:17;;;;;;;7.60;3.83;;;;;;;3.97;100.00;94613.75;5076078;28;20286;-70
2023/12/01 05:42:45;;;;;;;7.63;3.33;;;;;;;3.78;100.00;94614.25;5076628;28;20608;-70
2023/12/01 05:45:12;;;;;;;6.57;3.47;;;;;;;3.71;100.00;94608.09;5076377;28;20202;-71
2023/12/01 05:47:43;;;;;;;6.10;3.23;;;;;;;3.75;100.00;94616.38;5076323;28;20202;-72
2023/12/01 05:50:21;;;;;;;5.30;3.20;;;;;;;3.91;100.00;94614.44;5077551;28;20221;-71
2023/12/01 05:52:49;;;;;;;6.37;3.63;;;;;;;3.73;100.00;94613.97;5076892;28;20634;-72
2023/12/01 05:55:17;;;;;;;7.83;4.03;;;;;;;3.71;100.00;94607.31;5076464;28;21029;-72
2023/12/01 05:57:44;;;;;;;6.93;3.50;;;;;;;3.68;100.00;94612.88;5076480;28;20210;-71
2023/12/01 06:00:15;;;;;;;5.53;3.40;;;;;;;3.72;100.00;94612.31;5077620;28;20227;-71
2023/12/01 06:02:42;;;;;;;9.50;3.97;;;;;;;3.67;100.00;94614.66;5076504;28;20208;-69
2023/12/01 06:05:11;;;;;;;5.90;3.23;;;;;;;3.72;100.00;94601.13;5078071;28;20208;-71
2023/12/01 06:07:41;;;;;;;5.60;3.40;;;;;;;3.78;100.00;94608.19;5077446;28;20285;-71
2023/12/01 06:10:09;;;;;;;6.77;3.70;;;;;;;3.76;100.00;94604.97;5076980;28;20819;-72
2023/12/01 06:12:37;;;;;;;7.93;3.57;;;;;;;3.68;100.00;94605.84;5077436;28;20243;-72
2023/12/01 06:15:05;;;;;;;8.13;3.20;;;;;;;3.73;100.00;94613.97;5078576;28;20635;-71
2023/12/01 06:17:31;;;;;;;6.13;3.13;;;;;;;3.62;100.00;94616.16;5079015;28;20206;-69
2023/12/01 06:19:58;;;;;;;5.93;3.47;;;;;;;3.58;100.00;94617.50;5078512;28;20244;-71
2023/12/01 06:22:24;;;;;;;7.70;3.97;;;;;;;3.58;100.00;94616.66;5076319;28;20253;-70
2023/12/01 06:24:53;;;;;;;6.97;4.03;;;;;;;3.66;100.00;94631.25;5075865;28;20201;-70
2023/12/01 06:27:19;;;;;;;7.00;3.50;;;;;;;3.59;100.00;94633.91;5074826;28;20211;-71
2023/12/01 06:29:46;;;;;;;7.50;4.07;;;;;;;3.62;100.00;94637.78;5075267;28;20594;-69
2023/12/01 06:32:13;;;;;;;5.67;3.67;;;;;;;3.69;100.00;94630.91;5074862;28;21265;-69
2023/12/01 06:34:39;;;;;;;7.27;3.50;;;;;;;3.65;100.00;94634.84;5076022;28;20316;-71
2023/12/01 06:37:06;;;;;;;6.10;3.47;;;;;;;3.68;100.00;94637.09;5074515;28;20214;-70
2023/12/01 06:39:33;;;;;;;5.20;2.83;;;;;;;3.69;100.00;94630.91;5075594;28;20218;-69
2023/12/01 06:42:00;;;;;;;4.70;2.80;;;;;;;3.81;100.00;94634.72;5075381;28;20198;-70
2023/12/01 06:44:27;;;;;;;7.00;3.70;;;;;;;3.67;100.00;94642.50;5075307;28;20203;-71
2023/12/01 06:46:53;;;;;;;4.80;2.80;;;;;;;3.66;100.00;94654.69;5074950;28;21067;-69
2023/12/01 06:49:20;;;;;;;7.73;3.73;;;;;;;3.65;100.00;94654.88;5075459;28;20726;-71
2023/12/01 06:51:46;;;;;;;7.17;3.30;;;;;;;3.66;100.00;94661.69;5076105;28;20199;-71
2023/12/01 06:54:13;;;;;;;5.10;2.80;;;;;;;3.67;100.00;94660.72;5074893;28;20229;-70
2023/12/01 06:56:39;;;;;;;5.77;3.33;;;;;;;3.74;100.00;94664.25;5075041;28;20200;-70
2023/12/01 06:59:08;;;;;;;4.83;3.20;;;;;;;3.80;100.00;94659.16;5075092;28;20226;-71
2023/12/01 07:01:35;;;;;;;6.13;3.43;;;;;;;3.55;100.00;94656.88;5075558;28;20211;-71
2023/12/01 07:04:07;;;;;;;4.63;2.90;;;;;;;3.67;100.00;94655.50;5074377;28;20597;-70
2023/12/01 07:06:34;;;;;;;5.30;3.00;;;;;;;3.72;100.00;94656.59;5075826;28;20209;-69
2023/12/01 07:09:01;;;;;;;6.10;3.00;;;;;;;3.75;100.00;94661.47;5074302;28;20701;-69
2023/12/01 07:11:27;;;;;;;4.93;2.83;;;;;;;3.71;100.00;94673.22;5075530;28;20211;-71
2023/12/01 07:13:55;;;;;;;4.03;2.70;;;;;;;3.84;100.00;94670.84;5075306;28;20212;-70
2023/12/01 07:16:22;;;;;;;6.67;3.17;;;;;;;3.82;100.00;94672.81;5074888;28;20210;-71
2023/12/01 07:18:49;;;;;;;6.83;3.03;;;;;;;4.26;100.00;94668.53;5075280;28;20229;-71
2023/12/01 07:21:15;;;;;;;8.40;3.73;;;;;;;4.66;100.00;94670.72;5075412;28;20199;-71
2023/12/01 07:23:44;;;;;;;5.33;3.10;;;;;;;5.14;100.00;94666.59;5079197;28;20217;-71
2023/12/01 07:26:10;;;;;;;7.93;3.70;;;;;;;5.26;100.00;94661.72;5078736;28;20203;-70
2023/12/01 07:28:47;;;;;;;8.20;3.67;;;;;;;5.26;100.00;94667.75;5078845;28;20220;-73
2023/12/01 07:31:14;;;;;;;7.63;4.00;;;;;;;4.63;100.00;94671.91;5074174;28;20260;-72
2023/12/01 07:33:41;;;;;;;11.17;3.47;;;;;;;4.40;100.00;94668.56;5076599;28;20202;-71
2023/12/01 07:36:10;;;;;;;6.37;3.40;;;;;;;4.44;100.00;94661.19;5076359;28;20229;-73
2023/12/01 07:38:36;;;;;;;5.90;3.20;;;;;;;4.28;100.00;94662.16;5076751;28;20227;-73
2023/12/01 07:41:03;;;;;;;5.17;2.63;;;;;;;4.29;100.00;94665.59;5076674;28;20200;-72
2023/12/01 07:43:30;;;;;;;6.10;3.63;;;;;;;4.27;100.00;94672.75;5076843;28;20680;-71
2023/12/01 07:45:56;;;;;;;7.83;3.83;;;;;;;4.21;100.00;94683.88;5077465;28;20199;-72
2023/12/01 07:48:23;;;;;;;5.93;3.27;;;;;;;4.21;100.00;94678.66;5072003;28;20235;-71
2023/12/01 07:50:51;;;;;;;3.87;2.60;;;;;;;4.39;100.00;94682.59;5076196;28;20199;-71
2023/12/01 07:53:17;;;;;;;5.70;2.83;;;;;;;4.16;100.00;94683.59;5075945;28;20686;-72
2023/12/01 07:55:44;;;;;;;4.83;3.20;;;;;;;4.05;100.00;94689.25;5076067;28;20906;-72
2023/12/01 07:58:10;;;;;;;8.73;4.27;;;;;;;4.09;100.00;94687.91;5074975;28;20200;-72
2023/12/01 08:00:40;;;;;;;6.00;3.30;;;;;;;4.10;100.00;94684.31;5076200;28;20653;-72
2023/12/01 08:03:07;;;;;;;6.27;3.40;;;;;;;4.18;100.00;94683.44;5076713;28;20601;-72
2023/12/01 08:05:34;;;;;;;6.43;3.40;;;;;;;4.11;100.00;94675.53;5077106;28;20211;-73
2023/12/01 08:08:03;;;;;;;8.20;4.00;;;;;;;4.30;100.00;94695.88;5075195;28;20287;-71
2023/12/01 08:10:29;;;;;;;7.27;3.97;;;;;;;4.17;100.00;94687.03;5074895;28;20210;-71
2023/12/01 08:12:56;;;;;;;5.27;3.40;;;;;;;4.18;100.00;94679.03;5077178;28;20225;-71
2023/12/01 08:15:23;;;;;;;8.43;4.07;;;;;;;4.30;100.00;94682.81;5074778;28;20590;-71
2023/12/01 08:17:49;;;;;;;8.27;3.50;;;;;;;4.31;100.00;94681.84;5075142;28;20595;-71
2023/12/01 08:20:18;;;;;;;10.67;4.93;;;;;;;4.25;100.00;94714.66;5076347;28;20222;-71
2023/12/01 08:22:46;;;;;;;9.87;5.27;;;;;;;4.28;100.00;94721.31;5075934;28;20206;-71
2023/12/01 08:25:14;;;;;;;8.07;3.90;;;;;;;4.41;100.00;94731.94;5076296;28;20213;-71
2023/12/01 08:27:41;;;;;;;8.80;4.80;;;;;;;4.21;100.00;94736.03;5074599;28;20203;-71
2023/12/01 08:30:08;;;;;;;11.60;4.70;;;;;;;4.35;100.00;94733.47;5075790;28;20226;-71
2023/12/01 08:32:35;;;;;;;8.47;4.57;;;;;;;4.26;100.00;94731.09;5075506;28;20209;-71
2023/12/01 08:35:03;;;;;;;8.47;3.87;;;;;;;4.21;100.00;94730.81;5076075;28;20227;-72
2023/12/01 08:37:30;;;;;;;9.93;4.47;;;;;;;4.34;100.00;94731.03;5074646;28;20201;-72
2023/12/01 08:39:56;;;;;;;9.03;4.20;;;;;;;4.32;100.00;94727.78;5075598;28;20219;-70
2023/12/01 08:42:24;;;;;;;10.87;4.50;;;;;;;4.49;100.00;94724.06;5073656;28;21243;-73
2023/12/01 08:44:51;;;;;;;7.57;4.57;;;;;;;4.40;100.00;94733.75;5076295;28;21101;-71
2023/12/01 08:47:20;;;;;;;9.80;5.17;;;;;;;4.40;100.00;94733.75;5074550;28;20696;-72
2023/12/01 08:49:49;;;;;;;11.47;5.40;;;;;;;4.39;100.00;94723.47;5075603;28;20215;-72
2023/12/01 08:52:15;;;;;;;9.93;4.43;;;;;;;4.43;100.00;94719.53;5075332;28;20203;-71
2023/12/01 08:54:42;;;;;;;12.73;4.63;;;;;;;4.38;100.00;94730.50;5075371;28;20214;-73
2023/12/01 08:57:08;;;;;;;11.20;4.73;;;;;;;4.29;100.00;94738.59;5074452;28;20214;-72
2023/12/01 08:59:37;;;;;;;9.47;4.73;;;;;;;4.29;100.00;94739.38;5075790;28;20698;-72
2023/12/01 09:02:04;;;;;;;12.77;5.30;;;;;;;4.14;100.00;94735.13;5075604;28;20203;-73
2023/12/01 09:04:30;;;;;;;9.73;4.60;;;;;;;4.15;100.00;94731.53;5074604;28;20680;-74
2023/12/01 09:06:57;;;;;;;11.50;4.80;;;;;;;4.21;100.00;94730.81;5074638;28;20207;-74
2023/12/01 09:09:23;;;;;;;11.63;4.90;;;;;;;4.23;100.00;94734.06;5073958;28;20263;-71
2023/12/01 09:11:50;;;;;;;11.90;5.17;;;;;;;4.33;100.00;94716.38;5075150;28;20206;-73
2023/12/01 09:14:16;;;;;;;10.10;4.67;;;;;;;4.41;100.00;94713.69;5075169;28;20199;-70
2023/12/01 09:16:44;;;;;;;11.47;5.30;;;;;;;4.49;100.00;94705.78;5074017;28;20226;-71
2023/12/01 09:19:11;;;;;;;10.43;4.47;;;;;;;4.42;100.00;94710.13;5074166;28;20220;-71
2023/12/01 09:21:37;;;;;;;11.50;5.17;;;;;;;4.34;100.00;94710.16;5075032;28;20291;-72
2023/12/01 09:24:04;;;;;;;9.30;4.17;;;;;;;4.61;100.00;94725.22;5073966;28;20231;-72
2023/12/01 09:26:31;;;;;;;10.53;4.70;;;;;;;4.65;100.00;94721.31;5074126;28;20218;-74
2023/12/01 09:28:58;;;;;;;11.37;5.13;;;;;;;4.50;100.00;94718.66;5074507;28;20223;-71
2023/12/01 09:31:24;;;;;;;11.17;5.00;;;;;;;4.37;100.00;94715.03;5074421;28;20705;-73
2023/12/01 09:33:52;;;;;;;8.43;4.07;;;;;;;4.63;100.00;94710.22;5074664;28;20918;-73
2023/12/01 09:36:18;;;;;;;9.10;4.47;;;;;;;4.63;100.00;94710.22;5075048;28;20231;-73
2023/12/01 09:38:49;;;;;;;8.40;3.60;;;;;;;4.73;100.00;94702.97;5073578;28;20223;-72
2023/12/01 09:41:16;;;;;;;8.97;3.83;;;;;;;4.65;100.00;94706.44;5074300;28;20204;-72
2023/12/01 09:43:43;;;;;;;11.07;4.30;;;;;;;4.68;100.00;94713.13;5073882;28;20231;-73
2023/12/01 09:46:11;;;;;;;10.87;4.40;;;;;;;4.64;100.00;94714.47;5073528;28;20199;-72
2023/12/01 09:48:41;;;;;;;9.00;3.93;;;;;;;4.75;100.00;94729.66;5072529;28;20249;-71
2023/12/01 09:51:10;;;;;;;9.20;4.47;;;;;;;4.82;100.00;94730.59;5072411;28;20210;-72
2023/12/01 09:53:37;;;;;;;8.70;3.90;;;;;;;4.77;100.00;94732.91;5071184;28;20203;-71
2023/12/01 09:56:05;;;;;;;11.70;4.87;;;;;;;4.75;100.00;94747.94;5073647;28;20219;-71
2023/12/01 09:58:33;;;;;;;11.03;4.67;;;;;;;4.73;100.00;94742.88;5072653;28;20254;-71
2023/12/01 10:01:00;;;;;;;10.47;4.60;;;;;;;4.26;100.00;94755.38;5075037;28;20194;-71
2023/12/01 10:03:27;;;;;;;10.43;4.57;;;;;;;4.42;100.00;94759.66;5073746;28;20222;-72
2023/12/01 10:05:55;;;;;;;10.30;4.70;;;;;;;4.62;100.00;94761.59;5074598;28;20200;-71
2023/12/01 10:08:22;;;;;;;14.63;5.53;;;;;;;4.70;100.00;94764.13;5075160;28;20237;-72
2023/12/01 10:10:49;;;;;;;13.50;5.30;;;;;;;4.52;100.00;94761.03;5075862;28;20200;-71
2023/12/01 10:13:16;;;;;;;13.57;5.03;;;;;;;4.61;100.00;94761.75;5075222;28;20765;-72
2023/12/01 10:15:43;;;;;;;14.50;5.30;;;;;;;4.50;100.00;94755.16;5076863;28;20234;-71
2023/12/01 10:18:10;;;;;;;12.07;4.67;;;;;;;4.50;100.00;94756.97;5074775;28;20207;-71
2023/12/01 10:20:39;;;;;;;11.40;4.87;;;;;;;4.37;100.00;94746.34;5073614;28;20215;-70
2023/12/01 10:23:17;;;;;;;11.13;4.97;;;;;;;4.66;100.00;94728.94;5074281;28;20227;-72
2023/12/01 10:25:49;;;;;;;11.63;4.90;;;;;;;4.40;100.00;94712.06;5074529;28;20227;-71
2023/12/01 10:28:16;;;;;;;13.43;5.67;;;;;;;4.15;100.00;94715.88;5070327;28;20214;-71
2023/12/01 10:30:53;;;;;;;11.70;5.70;;;;;;;4.40;100.00;94701.66;5073512;28;20205;-71
2023/12/01 10:33:20;;;;;;;14.97;5.80;;;;;;;4.34;100.00;94699.72;5075898;28;20237;-70
2023/12/01 10:36:01;;;;;;;15.17;5.80;;;;;;;4.47;100.00;94685.13;5074045;28;20230;-71
2023/12/01 10:38:29;;;;;;;12.80;5.20;;;;;;;4.05;100.00;94684.03;5074523;28;20233;-71
2023/12/01 10:40:59;;;;;;;11.80;4.90;;;;;;;4.21;100.00;94680.47;5074599;28;20204;-71
2023/12/01 10:43:27;;;;;;;16.00;6.43;;;;;;;4.18;100.00;94694.69;5074041;28;20260;-70
2023/12/01 10:45:54;;;;;;;15.07;6.47;;;;;;;4.09;100.00;94685.31;5074435;28;20225;-71
2023/12/01 10:48:22;;;;;;;13.33;6.17;;;;;;;3.89;100.00;94683.34;5073688;28;20227;-71
2023/12/01 10:50:51;;;;;;;14.30;6.00;;;;;;;4.04;100.00;94679.81;5075077;28;20732;-71
2023/12/01 10:53:19;;;;;;;12.43;5.60;;;;;;;4.19;100.00;94688.47;5074594;28;20203;-71
2023/12/01 10:55:47;;;;;;;15.83;5.50;;;;;;;4.23;100.00;94682.72;5074489;28;20314;-70
2023/12/01 10:58:21;;;;;;;10.03;4.13;;;;;;;4.44;100.00;94689.88;5078393;28;20210;-71
2023/12/01 11:00:50;;;;;;;15.70;6.67;;;;;;;4.42;100.00;94691.84;5078104;28;20210;-71
2023/12/01 11:03:19;;;;;;;15.30;5.90;;;;;;;4.41;100.00;94687.63;5078014;28;21425;-71
2023/12/01 11:05:49;;;;;;;13.43;5.60;;;;;;;4.39;100.00;94694.81;5078323;28;20722;-71
2023/12/01 11:08:36;;;;;;;14.37;5.97;;;;;;;4.45;100.00;94686.28;5077643;28;20294;-70
2023/12/01 11:11:17;;;;;;;15.37;5.83;;;;;;;4.07;100.00;94692.47;5077666;28;20196;-71
2023/12/01 11:13:58;;;;;;;15.90;6.40;;;;;;;4.43;100.00;94681.25;5078861;28;20207;-71
2023/12/01 11:16:26;;;;;;;16.77;6.00;;;;;;;4.21;100.00;94673.47;5077488;28;20870;-71
2023/12/01 11:18:52;;;;;;;13.50;5.70;;;;;;;4.26;100.00;94674.56;5077223;28;20845;-71
2023/12/01 11:21:19;;;;;;;11.30;5.10;;;;;;;4.18;100.00;94668.59;5078281;28;20210;-71
2023/12/01 11:23:46;;;;;;;14.03;5.93;;;;;;;3.94;100.00;94657.59;5078974;28;20211;-72
2023/12/01 11:26:13;;;;;;;14.30;5.50;;;;;;;3.95;100.00;94651.41;5077026;28;20203;-72
2023/12/01 11:28:46;;;;;;;15.20;5.53;;;;;;;4.04;100.00;94643.31;5077729;28;20738;-71
2023/12/01 11:31:19;;;;;;;14.40;6.40;;;;;;;3.80;100.00;94637.50;5076643;28;20357;-71